Time;durP1;ratioP1;P1;durP2;ratioP2;P2;SDS_P1;SDS_P2;PMS_P1;PMS_P2;Temp;Humidity;BMP_temperature;BMP_pressure;BME280_temperature;BME280_humidity;BME280_pressure;Samples;Min_cycle;Max_cycle;Signal;HPM_P1;HPM_P2
2022/09/23 00:01:49;;;;;;;14.10;9.68;;;10.80;99.10;;;;;;5072437;28;20052;-46
2022/09/23 00:04:16;;;;;;;14.85;10.70;;;10.70;99.00;;;;;;5073029;28;20049;-45
2022/09/23 00:06:43;;;;;;;16.20;9.27;;;10.80;99.10;;;;;;5072635;28;20431;-47
2022/09/23 00:09:10;;;;;;;12.38;10.40;;;10.70;99.10;;;;;;5071440;28;20052;-43
2022/09/23 00:11:37;;;;;;;12.32;10.75;;;10.70;99.10;;;;;;5071979;28;20060;-49
2022/09/23 00:14:04;;;;;;;12.23;9.88;;;10.70;99.10;;;;;;5072332;28;20053;-46
2022/09/23 00:16:32;;;;;;;13.48;10.07;;;10.70;99.20;;;;;;5070815;28;20132;-48
2022/09/23 00:19:01;;;;;;;15.05;11.15;;;10.60;99.20;;;;;;5072643;28;20463;-43
2022/09/23 00:21:28;;;;;;;11.43;9.18;;;10.60;99.20;;;;;;5071295;28;20484;-48
2022/09/23 00:23:55;;;;;;;12.00;9.30;;;10.60;99.10;;;;;;5072396;28;20084;-50
2022/09/23 00:26:22;;;;;;;11.73;8.93;;;10.60;99.00;;;;;;5070086;28;20106;-48
2022/09/23 00:28:49;;;;;;;17.45;11.63;;;10.60;99.10;;;;;;5056230;28;20550;-48
2022/09/23 00:31:18;;;;;;;12.90;9.55;;;10.60;99.30;;;;;;5051995;28;20555;-48
2022/09/23 00:33:45;;;;;;;14.00;9.98;;;10.60;99.30;;;;;;5062736;28;20056;-43
2022/09/23 00:36:16;;;;;;;11.70;8.85;;;10.60;99.30;;;;;;5072407;28;20103;-46
2022/09/23 00:38:42;;;;;;;10.80;9.70;;;10.50;99.30;;;;;;5071261;28;20087;-45
2022/09/23 00:41:10;;;;;;;13.45;11.25;;;10.50;99.30;;;;;;5072034;28;20048;-47
2022/09/23 00:43:38;;;;;;;11.20;9.30;;;10.50;99.40;;;;;;5071105;28;20124;-43
2022/09/23 00:46:06;;;;;;;12.35;9.23;;;10.50;99.40;;;;;;5070571;28;20059;-47
2022/09/23 00:48:32;;;;;;;9.60;8.60;;;10.40;99.30;;;;;;5071322;28;20492;-47
2022/09/23 00:50:59;;;;;;;10.52;9.43;;;10.40;99.30;;;;;;5072110;28;20084;-48
2022/09/23 00:53:27;;;;;;;14.57;11.13;;;10.40;99.40;;;;;;5071180;28;20143;-44
2022/09/23 00:55:55;;;;;;;11.85;8.90;;;10.40;99.40;;;;;;5071972;28;20098;-46
2022/09/23 00:58:25;;;;;;;12.93;10.15;;;10.40;99.50;;;;;;5070923;28;20481;-46
2022/09/23 01:00:52;;;;;;;9.75;8.25;;;10.30;99.50;;;;;;5069877;28;20044;-45
2022/09/23 01:03:19;;;;;;;14.23;11.70;;;10.40;99.60;;;;;;5071109;28;20079;-42
2022/09/23 01:05:46;;;;;;;14.85;11.23;;;10.30;99.60;;;;;;5071907;28;20308;-45
2022/09/23 01:08:13;;;;;;;8.88;7.97;;;10.30;99.60;;;;;;5070847;28;20048;-46
2022/09/23 01:10:45;;;;;;;15.77;11.70;;;10.30;99.60;;;;;;5071968;28;20106;-46
2022/09/23 01:13:15;;;;;;;12.73;11.07;;;10.30;99.70;;;;;;5071455;28;20048;-47
2022/09/23 01:15:46;;;;;;;19.70;11.88;;;10.30;99.80;;;;;;5070715;28;20499;-45
2022/09/23 01:18:20;;;;;;;18.77;12.88;;;10.20;99.80;;;;;;5070978;28;20131;-46
2022/09/23 01:20:58;;;;;;;13.35;11.48;;;10.20;99.90;;;;;;5072050;28;20064;-47
2022/09/23 01:24:09;;;;;;;13.15;11.40;;;10.20;99.90;;;;;;5072961;28;20450;-46
2022/09/23 01:26:58;;;;;;;12.90;9.50;;;10.20;99.70;;;;;;5039411;28;20543;-46
2022/09/23 01:29:55;;;;;;;11.50;9.52;;;10.20;99.60;;;;;;5054288;28;20500;-46
2022/09/23 01:32:27;;;;;;;11.60;10.32;;;10.20;99.70;;;;;;5001572;28;20104;-46
2022/09/23 01:34:57;;;;;;;15.52;11.98;;;10.10;99.80;;;;;;5067572;28;20534;-45
2022/09/23 01:37:27;;;;;;;14.20;12.02;;;10.10;99.90;;;;;;5074369;28;20052;-45
2022/09/23 01:40:00;;;;;;;14.02;11.40;;;10.20;99.90;;;;;;5075204;28;20048;-48
2022/09/23 01:42:29;;;;;;;16.25;13.13;;;10.10;99.90;;;;;;5075180;28;20131;-44
2022/09/23 01:44:57;;;;;;;18.42;11.98;;;10.10;99.90;;;;;;5074801;28;20129;-46
2022/09/23 01:47:27;;;;;;;15.13;12.25;;;10.10;99.90;;;;;;5074944;28;20048;-46
2022/09/23 01:49:56;;;;;;;12.18;10.93;;;10.10;99.90;;;;;;5074938;28;20432;-46
2022/09/23 01:52:25;;;;;;;12.45;10.35;;;10.10;99.90;;;;;;5072775;28;20488;-49
2022/09/23 01:54:54;;;;;;;17.08;12.32;;;10.00;99.90;;;;;;5074560;28;20487;-45
2022/09/23 01:57:23;;;;;;;12.55;10.35;;;10.10;99.90;;;;;;5074527;28;20087;-42
2022/09/23 01:59:51;;;;;;;16.45;12.60;;;10.00;99.90;;;;;;5073912;28;20102;-46
2022/09/23 02:02:20;;;;;;;17.27;11.43;;;10.00;99.90;;;;;;5074750;28;20052;-46
2022/09/23 02:04:55;;;;;;;14.63;11.98;;;10.00;99.90;;;;;;5073587;28;20052;-46
2022/09/23 02:07:24;;;;;;;14.32;10.85;;;10.00;99.90;;;;;;5073698;28;20458;-42
2022/09/23 02:09:54;;;;;;;10.52;9.40;;;10.00;99.90;;;;;;5054526;28;20191;-45
2022/09/23 02:12:21;;;;;;;13.20;11.43;;;10.00;99.90;;;;;;5054740;28;20049;-49
2022/09/23 02:14:50;;;;;;;12.02;10.77;;;10.00;99.90;;;;;;5054204;28;20519;-45
2022/09/23 02:17:18;;;;;;;20.38;14.13;;;10.00;99.90;;;;;;5053715;28;20052;-49
2022/09/23 02:19:46;;;;;;;15.93;12.18;;;10.00;99.90;;;;;;5053323;28;20055;-43
2022/09/23 02:22:16;;;;;;;13.55;10.93;;;10.00;99.90;;;;;;5054479;28;20056;-49
2022/09/23 02:24:43;;;;;;;14.07;12.23;;;10.00;99.90;;;;;;5056981;28;20056;-48
2022/09/23 02:27:16;;;;;;;16.35;12.95;;;9.90;99.90;;;;;;5071771;28;20503;-47
2022/09/23 02:29:47;;;;;;;18.33;12.00;;;9.90;99.90;;;;;;5054397;28;20072;-46
2022/09/23 02:32:16;;;;;;;12.52;10.63;;;9.90;99.90;;;;;;5054187;28;20052;-47
2022/09/23 02:34:45;;;;;;;16.13;12.80;;;10.00;99.90;;;;;;5071830;28;20056;-43
2022/09/23 02:37:19;;;;;;;13.82;11.07;;;9.90;99.90;;;;;;5073703;28;20049;-44
2022/09/23 02:39:52;;;;;;;14.00;10.60;;;9.90;99.90;;;;;;5074038;28;20053;-46
2022/09/23 02:42:20;;;;;;;13.35;11.32;;;9.80;99.90;;;;;;5072926;28;20450;-48
2022/09/23 02:44:47;;;;;;;14.07;11.02;;;9.90;99.90;;;;;;5072641;28;20130;-47
2022/09/23 02:47:14;;;;;;;14.95;12.18;;;9.80;99.90;;;;;;5072435;28;20506;-46
2022/09/23 02:49:41;;;;;;;14.27;11.95;;;9.80;99.90;;;;;;5073602;28;20052;-45
2022/09/23 02:52:07;;;;;;;14.55;9.68;;;9.80;99.90;;;;;;5073678;28;20060;-46
2022/09/23 02:54:36;;;;;;;14.30;10.60;;;9.80;99.90;;;;;;5073890;28;20052;-48
2022/09/23 02:57:04;;;;;;;12.88;10.68;;;9.70;99.90;;;;;;5072177;28;20539;-46
2022/09/23 02:59:31;;;;;;;12.35;10.90;;;9.70;99.90;;;;;;5072850;28;20481;-46
2022/09/23 03:02:13;;;;;;;14.32;10.85;;;9.60;99.90;;;;;;5073571;28;20558;-50
2022/09/23 03:04:43;;;;;;;12.77;10.23;;;9.70;99.90;;;;;;5073498;28;20135;-46
2022/09/23 03:07:13;;;;;;;16.45;10.23;;;9.60;99.90;;;;;;5072396;28;20084;-46
2022/09/23 03:09:43;;;;;;;12.38;10.20;;;9.60;99.90;;;;;;5072671;28;20053;-46
2022/09/23 03:12:14;;;;;;;15.60;12.73;;;9.60;99.90;;;;;;5073429;28;20408;-42
2022/09/23 03:14:43;;;;;;;11.82;9.82;;;9.60;99.90;;;;;;5073542;28;20048;-46
2022/09/23 03:17:14;;;;;;;18.00;13.10;;;9.60;99.90;;;;;;5071162;28;20056;-45
2022/09/23 03:19:43;;;;;;;13.88;11.52;;;9.50;99.90;;;;;;5073324;28;20053;-47
2022/09/23 03:22:11;;;;;;;14.50;12.90;;;9.50;99.90;;;;;;5073237;28;20086;-47
2022/09/23 03:24:43;;;;;;;14.40;12.90;;;9.50;99.90;;;;;;5072362;28;20472;-45
2022/09/23 03:27:12;;;;;;;;;;;9.50;99.90;;;;;;5071243;28;20052;-46
2022/09/23 03:29:40;;;;;;;14.25;11.63;;;9.40;99.90;;;;;;5051895;28;20396;-43
2022/09/23 03:32:06;;;;;;;11.48;10.38;;;9.40;99.90;;;;;;5053300;28;20118;-48
2022/09/23 03:34:33;;;;;;;15.00;12.38;;;9.40;99.90;;;;;;5070657;28;20464;-49
2022/09/23 03:37:03;;;;;;;13.63;12.23;;;9.30;99.90;;;;;;5071985;28;20106;-47
2022/09/23 03:39:34;;;;;;;15.68;11.52;;;9.30;99.90;;;;;;5072819;28;20050;-47
2022/09/23 03:42:03;;;;;;;13.82;12.25;;;9.30;99.90;;;;;;5071900;28;20120;-47
2022/09/23 03:44:30;;;;;;;15.82;12.48;;;9.30;99.90;;;;;;5071489;28;20542;-50
2022/09/23 03:46:59;;;;;;;17.85;12.98;;;9.30;99.90;;;;;;5070979;28;20056;-44
2022/09/23 03:49:27;;;;;;;16.90;12.98;;;9.30;99.90;;;;;;5070918;28;20056;-44
2022/09/23 03:51:53;;;;;;;15.85;13.50;;;9.30;99.90;;;;;;5072703;28;20070;-48
2022/09/23 03:54:21;;;;;;;17.10;14.35;;;9.30;99.90;;;;;;5071628;28;20181;-50
2022/09/23 03:56:47;;;;;;;20.17;13.50;;;9.20;99.90;;;;;;5072568;28;20058;-48
2022/09/23 03:59:16;;;;;;;20.50;13.52;;;9.30;99.90;;;;;;5071534;28;20075;-46
2022/09/23 04:01:43;;;;;;;18.85;14.02;;;9.30;99.90;;;;;;5072350;28;20382;-47
2022/09/23 04:04:09;;;;;;;17.83;12.65;;;9.30;99.90;;;;;;5072636;28;20113;-46
2022/09/23 04:06:36;;;;;;;16.33;14.15;;;9.30;99.90;;;;;;5071616;28;20083;-49
2022/09/23 04:09:03;;;;;;;17.77;14.30;;;9.30;99.90;;;;;;5071661;28;20084;-48
2022/09/23 04:11:30;;;;;;;17.95;14.73;;;9.30;99.90;;;;;;5072449;28;20057;-46
2022/09/23 04:13:57;;;;;;;18.48;13.60;;;9.30;99.90;;;;;;5072203;28;20542;-47
2022/09/23 04:16:25;;;;;;;16.10;12.82;;;9.30;99.90;;;;;;5072399;28;20048;-47
2022/09/23 04:18:52;;;;;;;17.95;14.88;;;9.30;99.90;;;;;;5071413;28;20044;-47
2022/09/23 04:21:18;;;;;;;19.50;15.57;;;9.30;99.90;;;;;;5071833;28;20144;-46
2022/09/23 04:23:45;;;;;;;18.73;14.48;;;9.30;99.90;;;;;;5071207;28;20147;-50
2022/09/23 04:26:12;;;;;;;17.42;14.48;;;9.30;99.90;;;;;;5070354;28;20484;-47
2022/09/23 04:28:39;;;;;;;23.75;14.70;;;9.30;99.90;;;;;;5069494;28;20091;-45
2022/09/23 04:31:06;;;;;;;19.67;15.32;;;9.30;99.90;;;;;;5071984;28;20052;-47
2022/09/23 04:33:34;;;;;;;18.13;13.70;;;9.30;99.90;;;;;;5071697;28;20053;-50
2022/09/23 04:36:01;;;;;;;16.23;13.32;;;9.30;99.90;;;;;;5071896;28;20394;-49
2022/09/23 04:38:28;;;;;;;22.55;13.60;;;9.30;99.90;;;;;;5071129;28;20060;-50
2022/09/23 04:40:55;;;;;;;16.60;13.60;;;9.30;99.90;;;;;;5069658;28;20516;-49
2022/09/23 04:43:22;;;;;;;19.60;13.98;;;9.30;99.90;;;;;;5071902;28;20425;-46
2022/09/23 04:45:57;;;;;;;17.42;14.02;;;9.30;99.90;;;;;;5071852;28;20045;-46
2022/09/23 04:48:24;;;;;;;18.80;15.13;;;9.30;99.90;;;;;;5071920;28;20048;-43
2022/09/23 04:50:52;;;;;;;17.00;12.55;;;9.20;99.90;;;;;;5071738;28;20447;-45
2022/09/23 04:53:20;;;;;;;21.08;15.90;;;9.30;99.90;;;;;;5070520;28;20048;-45
2022/09/23 04:55:46;;;;;;;14.90;13.38;;;9.30;99.90;;;;;;5071642;28;20045;-47
2022/09/23 04:58:13;;;;;;;14.40;12.73;;;9.20;99.90;;;;;;5072537;28;20137;-48
2022/09/23 05:00:40;;;;;;;19.00;13.95;;;9.30;99.90;;;;;;5070233;28;20079;-44
2022/09/23 05:03:07;;;;;;;15.60;13.98;;;9.30;99.90;;;;;;5061784;28;20463;-47
2022/09/23 05:05:34;;;;;;;19.20;15.88;;;9.30;99.90;;;;;;5051839;28;20079;-44
2022/09/23 05:08:02;;;;;;;20.80;14.98;;;9.20;99.90;;;;;;5055257;28;20114;-45
2022/09/23 05:10:30;;;;;;;15.68;13.25;;;9.20;99.90;;;;;;5054227;28;20088;-46
2022/09/23 05:12:57;;;;;;;15.07;12.18;;;9.20;99.90;;;;;;5055234;28;20057;-46
2022/09/23 05:15:24;;;;;;;19.63;15.25;;;9.20;99.90;;;;;;5062713;28;20118;-49
2022/09/23 05:17:51;;;;;;;20.38;14.40;;;9.20;99.90;;;;;;5075337;28;20048;-47
2022/09/23 05:20:18;;;;;;;18.40;14.95;;;9.20;99.90;;;;;;5075346;28;20048;-47
2022/09/23 05:22:45;;;;;;;15.38;10.88;;;9.20;99.90;;;;;;5075057;28;20052;-47
2022/09/23 05:25:13;;;;;;;16.48;14.23;;;9.20;99.90;;;;;;5074950;28;20056;-48
2022/09/23 05:27:41;;;;;;;13.00;11.60;;;9.20;99.90;;;;;;5074675;28;20064;-46
2022/09/23 05:30:10;;;;;;;18.83;13.95;;;9.20;99.90;;;;;;5075200;28;20413;-50
2022/09/23 05:32:37;;;;;;;16.45;13.57;;;9.20;99.90;;;;;;5072932;28;20484;-46
2022/09/23 05:35:04;;;;;;;18.88;15.90;;;9.20;99.90;;;;;;5074065;28;20048;-48
2022/09/23 05:37:32;;;;;;;14.73;13.23;;;9.20;99.90;;;;;;5073718;28;20123;-46
2022/09/23 05:39:59;;;;;;;18.42;15.43;;;9.20;99.90;;;;;;5073729;28;20055;-46
2022/09/23 05:42:27;;;;;;;21.45;13.60;;;9.20;99.90;;;;;;5075034;28;20048;-47
2022/09/23 05:44:55;;;;;;;16.38;13.38;;;9.20;99.90;;;;;;5071093;28;20048;-45
2022/09/23 05:47:21;;;;;;;14.07;11.27;;;9.20;99.90;;;;;;5061069;28;20519;-46
2022/09/23 05:49:48;;;;;;;19.85;15.18;;;9.20;99.90;;;;;;5066207;28;20161;-44
2022/09/23 05:52:16;;;;;;;24.00;14.93;;;9.20;99.90;;;;;;5074269;28;20131;-47
2022/09/23 05:54:42;;;;;;;15.10;11.80;;;9.20;99.90;;;;;;5071743;28;20094;-47
2022/09/23 05:57:09;;;;;;;17.10;15.02;;;9.20;99.90;;;;;;5068916;28;20061;-46
2022/09/23 05:59:37;;;;;;;17.95;15.40;;;9.20;99.90;;;;;;5060127;28;20056;-49
2022/09/23 06:02:04;;;;;;;19.48;15.10;;;9.30;99.90;;;;;;5069037;28;20056;-47
2022/09/23 06:04:31;;;;;;;18.70;15.75;;;9.30;99.90;;;;;;5073800;28;20539;-45
2022/09/23 06:06:58;;;;;;;18.15;14.77;;;9.30;99.90;;;;;;5072557;28;20056;-47
2022/09/23 06:09:25;;;;;;;21.05;15.43;;;9.40;99.90;;;;;;5071684;28;20440;-48
2022/09/23 06:11:52;;;;;;;18.83;13.82;;;9.40;99.90;;;;;;5072721;28;20057;-49
2022/09/23 06:14:18;;;;;;;19.02;15.43;;;9.40;99.90;;;;;;5073798;28;20084;-50
2022/09/23 06:16:47;;;;;;;23.95;15.40;;;9.50;99.90;;;;;;5071410;28;20052;-49
2022/09/23 06:19:13;;;;;;;18.95;15.63;;;9.50;99.90;;;;;;5069721;28;20135;-50
2022/09/23 06:21:40;;;;;;;19.20;15.30;;;9.60;99.90;;;;;;5073235;28;20139;-48
2022/09/23 06:24:07;;;;;;;20.20;15.15;;;9.60;99.90;;;;;;5071204;28;20459;-48
2022/09/23 06:26:36;;;;;;;16.08;13.75;;;9.70;99.90;;;;;;5072305;28;20409;-47
2022/09/23 06:29:03;;;;;;;19.65;14.80;;;9.70;99.90;;;;;;5071908;28;20079;-47
2022/09/23 06:31:30;;;;;;;20.95;15.23;;;9.80;99.90;;;;;;5069437;28;20060;-46
2022/09/23 06:33:59;;;;;;;19.27;14.55;;;9.80;99.90;;;;;;5068156;28;20071;-49
2022/09/23 06:36:25;;;;;;;17.90;14.85;;;9.90;99.90;;;;;;5071891;28;20045;-46
2022/09/23 06:38:52;;;;;;;20.58;14.45;;;10.00;99.90;;;;;;5067809;28;20163;-46
2022/09/23 06:41:20;;;;;;;18.08;14.32;;;10.00;99.90;;;;;;5068766;28;20196;-47
2022/09/23 06:43:47;;;;;;;19.88;13.63;;;10.10;99.90;;;;;;5067452;28;20055;-48
2022/09/23 06:46:15;;;;;;;15.02;13.43;;;10.10;99.90;;;;;;5071877;28;20056;-44
2022/09/23 06:48:43;;;;;;;26.00;14.60;;;10.20;99.90;;;;;;5070051;28;20044;-45
2022/09/23 06:51:17;;;;;;;22.17;14.27;;;10.20;99.90;;;;;;5070767;28;20049;-47
2022/09/23 06:53:47;;;;;;;18.92;14.43;;;10.20;99.90;;;;;;5070649;28;20106;-46
2022/09/23 06:56:15;;;;;;;17.80;14.65;;;10.30;99.90;;;;;;5070663;28;20052;-41
2022/09/23 06:58:42;;;;;;;23.27;15.02;;;10.30;99.90;;;;;;5071481;28;20045;-45
2022/09/23 07:01:11;;;;;;;20.17;14.57;;;10.30;99.90;;;;;;5071544;28;20048;-48
2022/09/23 07:03:38;;;;;;;17.58;14.68;;;10.40;99.90;;;;;;5069775;28;20099;-49
2022/09/23 07:06:05;;;;;;;21.30;15.15;;;10.40;99.90;;;;;;5070979;28;20098;-51
2022/09/23 07:08:34;;;;;;;24.45;15.20;;;10.50;99.90;;;;;;5072220;28;20075;-49
2022/09/23 07:11:02;;;;;;;17.52;13.30;;;10.60;99.90;;;;;;5070839;28;20060;-42
2022/09/23 07:13:29;;;;;;;19.92;14.23;;;10.60;99.90;;;;;;5059599;28;20118;-42
2022/09/23 07:15:57;;;;;;;19.33;14.05;;;10.50;99.90;;;;;;5066180;28;20064;-43
2022/09/23 07:18:25;;;;;;;17.23;13.18;;;10.70;99.90;;;;;;5068344;28;20059;-45
2022/09/23 07:20:51;;;;;;;18.17;14.25;;;10.70;99.90;;;;;;5071399;28;20060;-48
2022/09/23 07:23:18;;;;;;;18.13;13.85;;;10.80;99.90;;;;;;5070812;28;20056;-45
2022/09/23 07:25:49;;;;;;;21.20;14.77;;;10.80;99.90;;;;;;5070770;28;20182;-46
2022/09/23 07:28:15;;;;;;;20.83;13.88;;;10.80;99.90;;;;;;5071850;28;20045;-47
2022/09/23 07:30:43;;;;;;;20.08;13.68;;;10.90;99.90;;;;;;5071541;28;20048;-44
2022/09/23 07:33:10;;;;;;;15.00;12.77;;;10.90;99.90;;;;;;5071543;28;20140;-43
2022/09/23 07:35:39;;;;;;;17.20;12.77;;;11.00;99.90;;;;;;5070960;28;20067;-45
2022/09/23 07:38:06;;;;;;;18.40;13.70;;;11.00;99.90;;;;;;5071905;28;20048;-44
2022/09/23 07:40:33;;;;;;;16.05;13.55;;;11.10;99.90;;;;;;5070894;28;20048;-43
2022/09/23 07:43:03;;;;;;;18.25;12.88;;;11.10;99.90;;;;;;5070633;28;20056;-43
2022/09/23 07:45:31;;;;;;;20.88;14.20;;;11.20;99.90;;;;;;5070891;28;20059;-43
2022/09/23 07:47:58;;;;;;;20.30;13.38;;;11.20;99.90;;;;;;5070412;28;20052;-46
2022/09/23 07:50:26;;;;;;;18.67;12.98;;;11.30;99.90;;;;;;5069996;28;20464;-48
2022/09/23 07:52:53;;;;;;;18.65;13.02;;;11.40;99.90;;;;;;5071612;28;20485;-43
2022/09/23 07:55:20;;;;;;;18.83;13.43;;;11.40;99.90;;;;;;5071580;28;20071;-43
2022/09/23 07:57:47;;;;;;;18.55;12.82;;;11.50;99.90;;;;;;5069811;28;20110;-48
2022/09/23 08:00:15;;;;;;;19.98;12.32;;;11.50;99.90;;;;;;5070552;28;20044;-47
2022/09/23 08:02:42;;;;;;;19.40;12.50;;;11.60;99.90;;;;;;5071566;28;20049;-47
2022/09/23 08:05:09;;;;;;;14.90;12.80;;;11.60;99.90;;;;;;5071636;28;20131;-47
2022/09/23 08:07:36;;;;;;;19.52;13.25;;;11.70;99.90;;;;;;5069755;28;20080;-47
2022/09/23 08:10:04;;;;;;;17.92;12.60;;;11.70;99.90;;;;;;5052841;28;20543;-48
2022/09/23 08:12:31;;;;;;;14.93;12.57;;;11.80;99.90;;;;;;5051295;28;20139;-47
2022/09/23 08:14:59;;;;;;;18.15;12.70;;;11.90;99.90;;;;;;5051250;28;20072;-46
2022/09/23 08:17:27;;;;;;;15.88;11.85;;;12.00;99.90;;;;;;5058554;28;20493;-45
2022/09/23 08:19:54;;;;;;;17.77;12.75;;;12.00;99.90;;;;;;5070545;28;20048;-47
2022/09/23 08:22:21;;;;;;;20.65;12.85;;;12.10;99.90;;;;;;5071244;28;20104;-44
2022/09/23 08:24:47;;;;;;;15.57;12.77;;;12.10;99.90;;;;;;5071449;28;20125;-49
2022/09/23 08:27:14;;;;;;;17.90;12.73;;;12.20;99.90;;;;;;5068671;28;20048;-48
2022/09/23 08:29:41;;;;;;;18.70;12.15;;;12.30;99.90;;;;;;5071513;28;20440;-48
2022/09/23 08:32:08;;;;;;;14.95;12.25;;;12.40;99.90;;;;;;5072240;28;20057;-45
2022/09/23 08:34:36;;;;;;;20.23;12.68;;;12.40;99.90;;;;;;5058045;28;20452;-46
2022/09/23 08:37:03;;;;;;;17.33;11.77;;;12.50;99.90;;;;;;5059065;28;20377;-46
2022/09/23 08:39:30;;;;;;;14.13;11.55;;;12.50;99.90;;;;;;5073664;28;20053;-46
2022/09/23 08:42:06;;;;;;;16.83;10.60;;;12.60;99.90;;;;;;5073328;28;20083;-49
2022/09/23 08:44:39;;;;;;;14.70;11.75;;;12.60;99.90;;;;;;5074577;28;20048;-49
2022/09/23 08:47:10;;;;;;;15.90;11.73;;;12.70;99.90;;;;;;5073953;28;20060;-45
2022/09/23 08:49:41;;;;;;;12.45;10.45;;;12.80;99.90;;;;;;5073653;28;20052;-48
2022/09/23 08:52:10;;;;;;;13.27;10.70;;;12.80;99.90;;;;;;5073215;28;20079;-46
2022/09/23 08:54:37;;;;;;;14.90;10.15;;;12.90;99.90;;;;;;5074176;28;20048;-47
2022/09/23 08:57:03;;;;;;;14.85;10.38;;;13.00;99.90;;;;;;5074835;28;20630;-49
2022/09/23 08:59:35;;;;;;;16.02;11.13;;;13.10;99.90;;;;;;5071931;28;20126;-47
2022/09/23 09:02:05;;;;;;;15.43;10.95;;;13.20;99.90;;;;;;5072236;28;20083;-49
2022/09/23 09:04:39;;;;;;;14.55;10.57;;;13.30;99.90;;;;;;5073729;28;20052;-46
2022/09/23 09:07:12;;;;;;;17.88;11.48;;;13.40;99.90;;;;;;5074869;28;20472;-46
2022/09/23 09:09:40;;;;;;;16.98;10.80;;;13.50;99.90;;;;;;5073322;28;20045;-43
2022/09/23 09:12:12;;;;;;;16.60;11.10;;;13.60;99.90;;;;;;5073451;28;20098;-50
2022/09/23 09:14:43;;;;;;;12.07;10.20;;;13.70;99.90;;;;;;5072424;28;20122;-49
2022/09/23 09:17:12;;;;;;;15.90;10.50;;;13.80;99.90;;;;;;5074288;28;20451;-45
2022/09/23 09:19:51;;;;;;;16.80;11.10;;;13.90;99.90;;;;;;5074428;28;20484;-49
2022/09/23 09:22:20;;;;;;;14.13;10.32;;;14.00;99.90;;;;;;5073278;28;20044;-46
2022/09/23 09:24:48;;;;;;;12.82;10.38;;;14.10;99.90;;;;;;5073381;28;20119;-47
2022/09/23 09:27:15;;;;;;;16.38;10.00;;;14.30;99.90;;;;;;5072276;28;20160;-50
2022/09/23 09:29:43;;;;;;;14.68;10.93;;;14.40;99.90;;;;;;5073175;28;20096;-49
2022/09/23 09:32:16;;;;;;;16.00;10.75;;;14.50;99.90;;;;;;5073015;28;20123;-43
2022/09/23 09:34:47;;;;;;;14.95;9.85;;;14.70;99.90;;;;;;5071971;28;20060;-45
2022/09/23 09:37:15;;;;;;;13.43;10.23;;;14.80;99.90;;;;;;5073958;28;20455;-47
2022/09/23 09:39:42;;;;;;;13.40;10.20;;;14.90;99.80;;;;;;5073353;28;20086;-45
2022/09/23 09:42:10;;;;;;;16.60;10.95;;;15.10;99.70;;;;;;5073256;28;20463;-43
2022/09/23 09:44:39;;;;;;;15.02;10.98;;;15.30;99.50;;;;;;5072659;28;20500;-49
2022/09/23 09:47:15;;;;;;;17.35;9.70;;;15.40;99.10;;;;;;5073014;28;20048;-43
2022/09/23 09:49:45;;;;;;;14.30;9.68;;;15.60;98.90;;;;;;5072450;28;20135;-44
2022/09/23 09:52:15;;;;;;;14.00;9.90;;;15.70;98.70;;;;;;5071782;28;20044;-49
2022/09/23 09:54:43;;;;;;;12.40;9.88;;;15.80;98.60;;;;;;5073200;28;20051;-44
2022/09/23 09:57:16;;;;;;;18.52;10.00;;;15.80;98.20;;;;;;5073844;28;20048;-46
2022/09/23 09:59:43;;;;;;;14.95;9.18;;;15.90;97.80;;;;;;5067246;28;20091;-44
2022/09/23 10:02:17;;;;;;;13.60;9.18;;;16.00;97.50;;;;;;5055111;28;20103;-47
2022/09/23 10:04:45;;;;;;;11.80;9.27;;;16.00;97.20;;;;;;5073496;28;20113;-48
2022/09/23 10:07:13;;;;;;;12.68;8.95;;;16.00;97.20;;;;;;5071638;28;20451;-47
2022/09/23 10:09:42;;;;;;;16.00;8.52;;;16.00;97.40;;;;;;5073372;28;20052;-46
2022/09/23 10:12:14;;;;;;;13.15;8.32;;;16.10;97.50;;;;;;5072121;28;20352;-44
2022/09/23 10:14:41;;;;;;;11.43;8.45;;;16.10;97.60;;;;;;5073601;28;20444;-47
2022/09/23 10:17:09;;;;;;;10.25;8.07;;;16.10;97.10;;;;;;5071484;28;20045;-46
2022/09/23 10:19:36;;;;;;;12.20;9.00;;;16.10;97.20;;;;;;5072311;28;20140;-44
2022/09/23 10:22:08;;;;;;;11.77;8.45;;;16.10;97.00;;;;;;5072030;28;20053;-45
2022/09/23 10:24:36;;;;;;;14.50;8.90;;;16.10;97.00;;;;;;5072317;28;20536;-50
2022/09/23 10:27:06;;;;;;;11.70;8.43;;;16.20;97.20;;;;;;5072156;28;20481;-46
2022/09/23 10:29:33;;;;;;;12.77;8.63;;;16.20;97.40;;;;;;5071664;28;20492;-47
2022/09/23 10:32:24;;;;;;;12.50;8.30;;;16.30;97.30;;;;;;5072907;28;20087;-50
2022/09/23 10:34:52;;;;;;;10.40;8.23;;;16.30;96.80;;;;;;5067483;28;20048;-46
2022/09/23 10:37:34;;;;;;;16.52;9.30;;;16.30;96.90;;;;;;5070739;28;20040;-50
2022/09/23 10:48:43;;;;;;;13.55;10.52;;;16.50;96.60;;;;;;5052071;28;20412;-50
2022/09/23 10:51:14;;;;;;;20.70;11.90;;;16.50;96.60;;;;;;5054611;28;20106;-47
2022/09/23 10:53:50;;;;;;;21.60;11.07;;;16.50;96.50;;;;;;5071717;28;20048;-47
2022/09/23 10:56:23;;;;;;;16.90;9.85;;;16.50;96.80;;;;;;5072226;28;20056;-46
2022/09/23 10:59:07;;;;;;;15.30;10.27;;;16.50;96.40;;;;;;5070973;28;20462;-49
2022/09/23 11:01:39;;;;;;;16.60;10.02;;;16.50;96.20;;;;;;5067308;28;20052;-48
2022/09/23 11:04:22;;;;;;;14.40;10.05;;;16.50;96.30;;;;;;5068906;28;20048;-47
2022/09/23 11:07:07;;;;;;;13.57;9.77;;;16.50;96.40;;;;;;5068630;28;21836;-43
2022/09/23 11:09:40;;;;;;;13.45;10.07;;;16.50;96.40;;;;;;5070178;28;20464;-47
2022/09/23 11:12:13;;;;;;;12.82;8.52;;;16.50;96.50;;;;;;5070980;28;20117;-51
2022/09/23 11:14:47;;;;;;;12.77;9.38;;;16.50;96.70;;;;;;5072022;28;20084;-41
2022/09/23 11:17:24;;;;;;;15.35;9.73;;;16.50;96.40;;;;;;5067361;28;20080;-48
2022/09/23 11:20:02;;;;;;;16.40;9.50;;;16.50;96.40;;;;;;5070517;28;20064;-47
2022/09/23 11:22:40;;;;;;;18.63;10.02;;;16.50;96.40;;;;;;5066026;28;20455;-47
2022/09/23 11:25:29;;;;;;;14.70;10.13;;;16.40;96.30;;;;;;5065126;28;20070;-47
2022/09/23 11:28:29;;;;;;;11.65;9.88;;;16.40;96.50;;;;;;5070252;28;20063;-47
2022/09/23 11:31:03;;;;;;;13.52;9.38;;;16.40;96.70;;;;;;5059685;28;20373;-46
2022/09/23 11:33:39;;;;;;;14.68;9.68;;;16.30;96.60;;;;;;5066227;28;20091;-46
2022/09/23 11:36:07;;;;;;;10.68;9.52;;;16.40;96.80;;;;;;5051627;28;20049;-45
2022/09/23 11:38:37;;;;;;;13.25;9.65;;;16.40;97.10;;;;;;5067735;28;20049;-46
2022/09/23 11:41:12;;;;;;;12.57;9.02;;;16.40;97.10;;;;;;5065462;28;20114;-47
2022/09/23 11:43:39;;;;;;;13.25;10.30;;;16.40;97.10;;;;;;5070266;28;20056;-45
2022/09/23 11:46:18;;;;;;;13.20;9.00;;;16.40;97.10;;;;;;5071648;28;20412;-42
2022/09/23 11:48:47;;;;;;;14.02;9.88;;;16.40;97.00;;;;;;5069963;28;20070;-44
2022/09/23 11:51:16;;;;;;;16.77;10.50;;;16.40;97.20;;;;;;5070555;28;20056;-43
2022/09/23 11:53:45;;;;;;;11.82;9.52;;;16.40;97.10;;;;;;5070463;28;20052;-46
2022/09/23 11:56:16;;;;;;;17.40;10.40;;;16.50;97.10;;;;;;5070714;28;20510;-47
2022/09/23 11:58:45;;;;;;;17.42;9.80;;;16.40;96.90;;;;;;5067076;28;20098;-43
2022/09/23 12:01:14;;;;;;;13.88;9.73;;;16.40;97.10;;;;;;5069399;28;20499;-48
2022/09/23 12:03:45;;;;;;;14.07;10.30;;;16.40;97.30;;;;;;5071250;28;20148;-43
2022/09/23 12:06:14;;;;;;;14.80;10.00;;;16.40;97.30;;;;;;5071971;28;20501;-48
2022/09/23 12:08:42;;;;;;;12.10;9.80;;;16.50;97.30;;;;;;5071005;28;20048;-46
2022/09/23 12:11:18;;;;;;;12.57;9.68;;;16.50;97.40;;;;;;5072060;28;20048;-44
2022/09/23 12:13:48;;;;;;;15.07;9.98;;;16.50;97.40;;;;;;5060978;28;20044;-47
2022/09/23 12:16:45;;;;;;;17.20;10.57;;;16.50;97.40;;;;;;5071449;28;20094;-47
2022/09/23 12:19:20;;;;;;;19.67;11.75;;;16.60;97.40;;;;;;5058045;28;20389;-47
2022/09/23 12:22:18;;;;;;;16.00;10.20;;;16.60;97.60;;;;;;5052486;28;20116;-50
2022/09/23 12:24:47;;;;;;;15.88;10.10;;;16.70;97.30;;;;;;5052985;28;20040;-46
2022/09/23 12:27:22;;;;;;;15.10;9.60;;;16.60;97.40;;;;;;5071223;28;20090;-48
2022/09/23 12:29:51;;;;;;;13.45;9.52;;;16.70;97.30;;;;;;5069808;28;20041;-46
2022/09/23 12:32:18;;;;;;;14.25;9.20;;;16.70;97.40;;;;;;5070468;28;20435;-46
2022/09/23 12:34:47;;;;;;;14.75;9.50;;;16.70;97.40;;;;;;5068126;28;20472;-46
2022/09/23 12:37:16;;;;;;;14.45;9.23;;;16.70;97.40;;;;;;5070048;28;20080;-48
2022/09/23 12:39:43;;;;;;;14.73;9.38;;;16.70;97.30;;;;;;5066973;28;20125;-46
2022/09/23 12:42:14;;;;;;;15.18;8.88;;;16.70;97.20;;;;;;5067720;28;20132;-43
2022/09/23 12:44:43;;;;;;;11.50;9.10;;;16.80;97.20;;;;;;5064344;28;20106;-46
2022/09/23 12:47:38;;;;;;;15.88;10.05;;;16.80;97.30;;;;;;5072195;28;20416;-46
2022/09/23 12:50:38;;;;;;;13.52;8.98;;;16.80;97.10;;;;;;5070133;28;20136;-46
2022/09/23 12:53:53;;;;;;;11.05;9.32;;;16.80;97.10;;;;;;5069626;28;20049;-49
2022/09/23 12:56:22;;;;;;;13.70;8.80;;;16.80;97.20;;;;;;5068626;28;20123;-43